sensor_id;sensor_type;location;lat;lon;timestamp;pressure;altitude;pressure_sealevel;temperature;humidity
75627;BME280;67372;49.404;11.034;2023-04-09T00:00:39;98888.09;;;7.21;74.92
75627;BME280;67372;49.404;11.034;2023-04-09T00:03:06;98883.97;;;7.19;74.54
75627;BME280;67372;49.404;11.034;2023-04-09T00:05:37;98886.81;;;7.17;74.38
75627;BME280;67372;49.404;11.034;2023-04-09T00:08:04;98880.88;;;7.15;74.51
75627;BME280;67372;49.404;11.034;2023-04-09T00:10:30;98880.03;;;7.15;74.88
75627;BME280;67372;49.404;11.034;2023-04-09T00:12:56;98881.03;;;7.14;75.06
75627;BME280;67372;49.404;11.034;2023-04-09T00:15:23;98882.03;;;7.13;75.05
75627;BME280;67372;49.404;11.034;2023-04-09T00:17:56;98878.38;;;7.14;75.43
75627;BME280;67372;49.404;11.034;2023-04-09T00:20:22;98880.69;;;7.17;74.81
75627;BME280;67372;49.404;11.034;2023-04-09T00:22:48;98883.44;;;7.23;74.52
75627;BME280;67372;49.404;11.034;2023-04-09T00:25:15;98878.78;;;7.25;74.93
75627;BME280;67372;49.404;11.034;2023-04-09T00:27:41;98881.25;;;7.27;74.69
75627;BME280;67372;49.404;11.034;2023-04-09T00:30:08;98879.25;;;7.29;74.01
75627;BME280;67372;49.404;11.034;2023-04-09T00:32:34;98883.38;;;7.31;74.19
75627;BME280;67372;49.404;11.034;2023-04-09T00:35:00;98888.66;;;7.31;74.48
75627;BME280;67372;49.404;11.034;2023-04-09T00:37:27;98880.25;;;7.28;74.72
75627;BME280;67372;49.404;11.034;2023-04-09T00:39:53;98877.97;;;7.25;74.83
75627;BME280;67372;49.404;11.034;2023-04-09T00:42:19;98884.91;;;7.26;74.74
75627;BME280;67372;49.404;11.034;2023-04-09T00:44:46;98873.28;;;7.27;74.66
75627;BME280;67372;49.404;11.034;2023-04-09T00:47:12;98876.59;;;7.29;74.27
75627;BME280;67372;49.404;11.034;2023-04-09T00:49:39;98878.88;;;7.32;74.35
75627;BME280;67372;49.404;11.034;2023-04-09T00:52:06;98878.25;;;7.30;75.68
75627;BME280;67372;49.404;11.034;2023-04-09T00:54:32;98879.88;;;7.31;74.16
75627;BME280;67372;49.404;11.034;2023-04-09T00:56:59;98877.06;;;7.32;74.30
75627;BME280;67372;49.404;11.034;2023-04-09T00:59:25;98876.09;;;7.33;74.29
75627;BME280;67372;49.404;11.034;2023-04-09T01:01:51;98882.53;;;7.31;74.60
75627;BME280;67372;49.404;11.034;2023-04-09T01:04:19;98879.72;;;7.32;73.91
75627;BME280;67372;49.404;11.034;2023-04-09T01:06:54;98883.38;;;7.31;74.14
75627;BME280;67372;49.404;11.034;2023-04-09T01:09:29;98879.06;;;7.30;74.26
75627;BME280;67372;49.404;11.034;2023-04-09T01:12:32;98883.91;;;7.27;75.90
75627;BME280;67372;49.404;11.034;2023-04-09T01:15:04;98871.81;;;7.24;74.39
75627;BME280;67372;49.404;11.034;2023-04-09T01:17:42;98876.13;;;7.25;74.69
75627;BME280;67372;49.404;11.034;2023-04-09T01:20:17;98874.13;;;7.27;75.81
75627;BME280;67372;49.404;11.034;2023-04-09T01:23:03;98867.34;;;7.25;74.84
75627;BME280;67372;49.404;11.034;2023-04-09T01:28:41;98861.56;;;7.21;74.37
75627;BME280;67372;49.404;11.034;2023-04-09T01:31:14;98872.19;;;7.21;75.17
75627;BME280;67372;49.404;11.034;2023-04-09T01:33:42;98868.88;;;7.19;74.72
75627;BME280;67372;49.404;11.034;2023-04-09T01:36:09;98872.38;;;7.20;75.34
75627;BME280;67372;49.404;11.034;2023-04-09T01:38:39;98871.34;;;7.21;74.40
75627;BME280;67372;49.404;11.034;2023-04-09T01:41:08;98869.72;;;7.20;74.45
75627;BME280;67372;49.404;11.034;2023-04-09T01:43:36;98874.19;;;7.19;74.47
75627;BME280;67372;49.404;11.034;2023-04-09T01:46:03;98870.53;;;7.20;74.26
75627;BME280;67372;49.404;11.034;2023-04-09T01:48:30;98875.84;;;7.20;74.28
75627;BME280;67372;49.404;11.034;2023-04-09T01:50:58;98873.38;;;7.19;74.74
75627;BME280;67372;49.404;11.034;2023-04-09T01:53:24;98876.75;;;7.13;74.50
75627;BME280;67372;49.404;11.034;2023-04-09T01:55:50;98876.41;;;7.07;74.66
75627;BME280;67372;49.404;11.034;2023-04-09T01:58:17;98877.78;;;7.03;74.60
75627;BME280;67372;49.404;11.034;2023-04-09T02:00:47;98868.72;;;6.98;75.45
75627;BME280;67372;49.404;11.034;2023-04-09T02:03:17;98873.09;;;6.91;75.42
75627;BME280;67372;49.404;11.034;2023-04-09T02:06:22;98874.13;;;6.82;75.49
75627;BME280;67372;49.404;11.034;2023-04-09T02:08:51;98880.94;;;6.76;75.67
75627;BME280;67372;49.404;11.034;2023-04-09T02:11:20;98880.94;;;6.76;75.27
75627;BME280;67372;49.404;11.034;2023-04-09T02:13:48;98887.78;;;6.70;76.44
75627;BME280;67372;49.404;11.034;2023-04-09T02:16:15;98884.00;;;6.65;75.52
75627;BME280;67372;49.404;11.034;2023-04-09T02:18:42;98887.81;;;6.62;76.61
75627;BME280;67372;49.404;11.034;2023-04-09T02:21:08;98887.66;;;6.64;75.71
75627;BME280;67372;49.404;11.034;2023-04-09T02:23:35;98892.78;;;6.65;75.71
75627;BME280;67372;49.404;11.034;2023-04-09T02:26:01;98886.50;;;6.66;75.41
75627;BME280;67372;49.404;11.034;2023-04-09T02:28:27;98881.38;;;6.65;74.91
75627;BME280;67372;49.404;11.034;2023-04-09T02:30:54;98886.34;;;6.60;75.18
75627;BME280;67372;49.404;11.034;2023-04-09T02:33:20;98892.16;;;6.55;75.20
75627;BME280;67372;49.404;11.034;2023-04-09T02:35:47;98893.50;;;6.51;75.62
75627;BME280;67372;49.404;11.034;2023-04-09T02:38:13;98889.38;;;6.49;74.92
75627;BME280;67372;49.404;11.034;2023-04-09T02:40:40;98884.78;;;6.42;75.62
75627;BME280;67372;49.404;11.034;2023-04-09T02:43:07;98879.84;;;6.31;75.40
75627;BME280;67372;49.404;11.034;2023-04-09T02:45:34;98881.91;;;6.21;75.76
75627;BME280;67372;49.404;11.034;2023-04-09T02:48:00;98883.91;;;6.11;75.64
75627;BME280;67372;49.404;11.034;2023-04-09T02:50:27;98883.75;;;6.04;75.90
75627;BME280;67372;49.404;11.034;2023-04-09T02:52:54;98879.16;;;5.98;76.46
75627;BME280;67372;49.404;11.034;2023-04-09T02:55:21;98876.50;;;5.90;76.12
75627;BME280;67372;49.404;11.034;2023-04-09T02:57:47;98880.97;;;5.81;76.37
75627;BME280;67372;49.404;11.034;2023-04-09T03:00:13;98884.16;;;5.69;75.72
75627;BME280;67372;49.404;11.034;2023-04-09T03:02:40;98880.84;;;5.59;76.18
75627;BME280;67372;49.404;11.034;2023-04-09T03:05:07;98881.22;;;5.47;75.92
75627;BME280;67372;49.404;11.034;2023-04-09T03:07:33;98877.25;;;5.35;76.74
75627;BME280;67372;49.404;11.034;2023-04-09T03:09:59;98875.59;;;5.26;76.04
75627;BME280;67372;49.404;11.034;2023-04-09T03:12:26;98874.09;;;5.15;76.51
75627;BME280;67372;49.404;11.034;2023-04-09T03:14:52;98874.28;;;5.06;76.92
75627;BME280;67372;49.404;11.034;2023-04-09T03:17:18;98873.91;;;4.92;76.92
75627;BME280;67372;49.404;11.034;2023-04-09T03:19:45;98864.34;;;4.83;78.01
75627;BME280;67372;49.404;11.034;2023-04-09T03:22:11;98866.16;;;4.75;77.22
75627;BME280;67372;49.404;11.034;2023-04-09T03:24:37;98865.28;;;4.66;77.49
75627;BME280;67372;49.404;11.034;2023-04-09T03:27:04;98875.69;;;4.59;79.74
75627;BME280;67372;49.404;11.034;2023-04-09T03:29:30;98879.44;;;4.49;79.93
75627;BME280;67372;49.404;11.034;2023-04-09T03:31:56;98883.88;;;4.40;79.19
75627;BME280;67372;49.404;11.034;2023-04-09T03:34:23;98882.72;;;4.35;79.48
75627;BME280;67372;49.404;11.034;2023-04-09T03:36:49;98882.53;;;4.28;78.35
75627;BME280;67372;49.404;11.034;2023-04-09T03:39:15;98880.19;;;4.25;78.21
75627;BME280;67372;49.404;11.034;2023-04-09T03:41:41;98880.50;;;4.22;78.08
75627;BME280;67372;49.404;11.034;2023-04-09T03:44:08;98882.97;;;4.15;78.63
75627;BME280;67372;49.404;11.034;2023-04-09T03:46:34;98885.09;;;4.12;78.06
75627;BME280;67372;49.404;11.034;2023-04-09T03:49:00;98889.19;;;4.06;78.94
75627;BME280;67372;49.404;11.034;2023-04-09T03:51:27;98887.84;;;4.02;79.89
75627;BME280;67372;49.404;11.034;2023-04-09T03:53:53;98891.94;;;3.96;79.00
75627;BME280;67372;49.404;11.034;2023-04-09T03:56:19;98896.19;;;3.89;80.31
75627;BME280;67372;49.404;11.034;2023-04-09T03:58:46;98895.03;;;3.84;79.52
75627;BME280;67372;49.404;11.034;2023-04-09T04:01:12;98897.44;;;3.77;78.69
75627;BME280;67372;49.404;11.034;2023-04-09T04:03:38;98896.25;;;3.72;79.57
75627;BME280;67372;49.404;11.034;2023-04-09T04:06:05;98898.53;;;3.66;78.32
75627;BME280;67372;49.404;11.034;2023-04-09T04:08:31;98897.19;;;3.62;78.63
75627;BME280;67372;49.404;11.034;2023-04-09T04:11:04;98905.72;;;3.56;78.62
75627;BME280;67372;49.404;11.034;2023-04-09T04:13:30;98896.59;;;3.51;78.47
75627;BME280;67372;49.404;11.034;2023-04-09T04:15:57;98898.22;;;3.44;78.71
75627;BME280;67372;49.404;11.034;2023-04-09T04:18:23;98906.44;;;3.41;78.56
75627;BME280;67372;49.404;11.034;2023-04-09T04:20:49;98904.94;;;3.38;77.98
75627;BME280;67372;49.404;11.034;2023-04-09T04:23:16;98904.41;;;3.34;77.99
75627;BME280;67372;49.404;11.034;2023-04-09T04:25:42;98906.38;;;3.32;78.39
75627;BME280;67372;49.404;11.034;2023-04-09T04:28:08;98917.34;;;3.28;78.71
75627;BME280;67372;49.404;11.034;2023-04-09T04:30:35;98916.00;;;3.24;78.60
75627;BME280;67372;49.404;11.034;2023-04-09T04:33:01;98915.63;;;3.19;79.18
75627;BME280;67372;49.404;11.034;2023-04-09T04:35:27;98912.47;;;3.15;79.20
75627;BME280;67372;49.404;11.034;2023-04-09T04:37:54;98918.06;;;3.12;79.27
75627;BME280;67372;49.404;11.034;2023-04-09T04:40:20;98921.69;;;3.11;79.28
75627;BME280;67372;49.404;11.034;2023-04-09T04:42:46;98921.00;;;3.09;79.65
75627;BME280;67372;49.404;11.034;2023-04-09T04:45:13;98927.94;;;3.10;79.53
75627;BME280;67372;49.404;11.034;2023-04-09T04:47:39;98928.91;;;3.09;79.27
75627;BME280;67372;49.404;11.034;2023-04-09T04:50:06;98935.44;;;3.05;79.20
75627;BME280;67372;49.404;11.034;2023-04-09T04:52:32;98933.94;;;3.02;80.27
75627;BME280;67372;49.404;11.034;2023-04-09T04:54:59;98927.00;;;3.01;80.39
75627;BME280;67372;49.404;11.034;2023-04-09T04:57:25;98934.75;;;3.03;79.71
75627;BME280;67372;49.404;11.034;2023-04-09T04:59:51;98939.56;;;3.07;79.09
75627;BME280;67372;49.404;11.034;2023-04-09T05:02:18;98934.03;;;3.11;79.39
75627;BME280;67372;49.404;11.034;2023-04-09T05:04:44;98940.81;;;3.13;79.76
75627;BME280;67372;49.404;11.034;2023-04-09T05:07:11;98936.22;;;3.15;79.00
75627;BME280;67372;49.404;11.034;2023-04-09T05:09:37;98943.81;;;3.18;78.77
75627;BME280;67372;49.404;11.034;2023-04-09T05:12:04;98938.91;;;3.23;79.23
75627;BME280;67372;49.404;11.034;2023-04-09T05:14:30;98941.91;;;3.28;78.88
75627;BME280;67372;49.404;11.034;2023-04-09T05:16:56;98945.78;;;3.34;78.53
75627;BME280;67372;49.404;11.034;2023-04-09T05:19:22;98945.47;;;3.37;78.46
75627;BME280;67372;49.404;11.034;2023-04-09T05:21:49;98941.53;;;3.41;78.67
75627;BME280;67372;49.404;11.034;2023-04-09T05:24:15;98940.25;;;3.45;79.18
75627;BME280;67372;49.404;11.034;2023-04-09T05:26:41;98944.06;;;3.51;80.61
75627;BME280;67372;49.404;11.034;2023-04-09T05:29:08;98938.50;;;3.54;79.43
75627;BME280;67372;49.404;11.034;2023-04-09T05:31:34;98946.41;;;3.54;80.44
75627;BME280;67372;49.404;11.034;2023-04-09T05:34:00;98948.59;;;3.58;79.86
75627;BME280;67372;49.404;11.034;2023-04-09T05:36:27;98943.38;;;3.66;79.01
75627;BME280;67372;49.404;11.034;2023-04-09T05:38:53;98942.59;;;3.74;79.18
75627;BME280;67372;49.404;11.034;2023-04-09T05:41:20;98948.63;;;3.84;79.02
75627;BME280;67372;49.404;11.034;2023-04-09T05:43:46;98944.06;;;3.94;78.54
75627;BME280;67372;49.404;11.034;2023-04-09T05:46:13;98944.25;;;4.01;78.54
75627;BME280;67372;49.404;11.034;2023-04-09T05:48:39;98944.31;;;4.09;78.68
75627;BME280;67372;49.404;11.034;2023-04-09T05:51:05;98950.31;;;4.19;78.62
75627;BME280;67372;49.404;11.034;2023-04-09T05:53:32;98950.19;;;4.29;78.09
75627;BME280;67372;49.404;11.034;2023-04-09T05:55:59;98944.13;;;4.37;77.48
75627;BME280;67372;49.404;11.034;2023-04-09T05:58:27;98953.72;;;4.46;77.65
75627;BME280;67372;49.404;11.034;2023-04-09T06:00:54;98950.81;;;4.57;78.16
75627;BME280;67372;49.404;11.034;2023-04-09T06:03:20;98950.66;;;4.67;78.05
75627;BME280;67372;49.404;11.034;2023-04-09T06:05:46;98958.31;;;4.78;77.65
75627;BME280;67372;49.404;11.034;2023-04-09T06:08:13;98952.88;;;4.87;77.42
75627;BME280;67372;49.404;11.034;2023-04-09T06:10:39;98953.72;;;4.96;77.36
75627;BME280;67372;49.404;11.034;2023-04-09T06:13:06;98955.09;;;5.08;77.05
75627;BME280;67372;49.404;11.034;2023-04-09T06:15:33;98954.91;;;5.18;77.41
75627;BME280;67372;49.404;11.034;2023-04-09T06:17:59;98960.06;;;5.28;77.74
75627;BME280;67372;49.404;11.034;2023-04-09T06:20:25;98954.13;;;5.42;77.72
75627;BME280;67372;49.404;11.034;2023-04-09T06:22:52;98956.44;;;5.53;77.67
75627;BME280;67372;49.404;11.034;2023-04-09T06:25:18;98946.34;;;5.65;77.29
75627;BME280;67372;49.404;11.034;2023-04-09T06:27:44;98953.31;;;5.74;77.25
75627;BME280;67372;49.404;11.034;2023-04-09T06:30:11;98951.28;;;5.84;77.06
75627;BME280;67372;49.404;11.034;2023-04-09T06:32:37;98959.28;;;5.92;76.73
75627;BME280;67372;49.404;11.034;2023-04-09T06:35:18;98953.97;;;6.00;76.51
75627;BME280;67372;49.404;11.034;2023-04-09T06:37:45;98961.69;;;6.10;76.10
75627;BME280;67372;49.404;11.034;2023-04-09T06:40:11;98952.75;;;6.19;75.80
75627;BME280;67372;49.404;11.034;2023-04-09T06:42:38;98963.31;;;6.27;75.85
75627;BME280;67372;49.404;11.034;2023-04-09T06:45:04;98970.06;;;6.38;75.29
75627;BME280;67372;49.404;11.034;2023-04-09T06:47:31;98969.06;;;6.47;75.54
75627;BME280;67372;49.404;11.034;2023-04-09T06:49:57;98962.59;;;6.50;75.01
75627;BME280;67372;49.404;11.034;2023-04-09T06:52:24;98973.31;;;6.56;74.75
75627;BME280;67372;49.404;11.034;2023-04-09T06:54:50;98974.97;;;6.57;74.68
75627;BME280;67372;49.404;11.034;2023-04-09T06:57:16;98978.28;;;6.67;74.31
75627;BME280;67372;49.404;11.034;2023-04-09T06:59:43;98974.75;;;6.75;74.02
75627;BME280;67372;49.404;11.034;2023-04-09T07:02:09;98969.41;;;6.83;73.89
75627;BME280;67372;49.404;11.034;2023-04-09T07:04:36;98977.97;;;6.93;73.59
75627;BME280;67372;49.404;11.034;2023-04-09T07:07:02;98975.94;;;7.03;73.63
75627;BME280;67372;49.404;11.034;2023-04-09T07:09:28;98970.59;;;7.12;73.13
75627;BME280;67372;49.404;11.034;2023-04-09T07:11:55;98976.66;;;7.20;72.88
75627;BME280;67372;49.404;11.034;2023-04-09T07:14:21;98971.13;;;7.30;73.01
75627;BME280;67372;49.404;11.034;2023-04-09T07:16:47;98970.63;;;7.34;71.76
75627;BME280;67372;49.404;11.034;2023-04-09T07:19:14;98969.91;;;7.41;71.58
75627;BME280;67372;49.404;11.034;2023-04-09T07:21:40;98979.34;;;7.43;70.70
75627;BME280;67372;49.404;11.034;2023-04-09T07:24:06;98973.13;;;7.51;71.62
75627;BME280;67372;49.404;11.034;2023-04-09T07:26:33;98968.09;;;7.56;70.86
75627;BME280;67372;49.404;11.034;2023-04-09T07:28:59;98972.72;;;7.62;70.48
75627;BME280;67372;49.404;11.034;2023-04-09T07:31:25;98982.09;;;7.73;70.36
75627;BME280;67372;49.404;11.034;2023-04-09T07:33:52;98977.56;;;7.81;70.02
75627;BME280;67372;49.404;11.034;2023-04-09T07:36:18;98979.94;;;7.91;69.61
75627;BME280;67372;49.404;11.034;2023-04-09T07:38:45;98988.38;;;7.94;69.12
75627;BME280;67372;49.404;11.034;2023-04-09T07:41:11;98974.66;;;8.06;69.30
75627;BME280;67372;49.404;11.034;2023-04-09T07:43:37;98976.03;;;8.16;69.14
75627;BME280;67372;49.404;11.034;2023-04-09T07:46:04;98976.13;;;8.23;68.78
75627;BME280;67372;49.404;11.034;2023-04-09T07:48:31;98984.22;;;8.29;68.67
75627;BME280;67372;49.404;11.034;2023-04-09T07:50:57;98977.19;;;8.37;67.41
75627;BME280;67372;49.404;11.034;2023-04-09T07:53:23;98982.88;;;8.48;67.84
75627;BME280;67372;49.404;11.034;2023-04-09T07:55:50;98979.84;;;8.51;67.70
75627;BME280;67372;49.404;11.034;2023-04-09T07:58:16;98976.28;;;8.59;66.64
75627;BME280;67372;49.404;11.034;2023-04-09T08:00:42;98982.88;;;8.63;66.23
75627;BME280;67372;49.404;11.034;2023-04-09T08:03:09;98981.13;;;8.70;66.14
75627;BME280;67372;49.404;11.034;2023-04-09T08:05:35;98982.13;;;8.84;66.89
75627;BME280;67372;49.404;11.034;2023-04-09T08:08:02;98980.19;;;8.92;66.29
75627;BME280;67372;49.404;11.034;2023-04-09T08:10:28;98980.81;;;8.95;65.81
75627;BME280;67372;49.404;11.034;2023-04-09T08:12:54;98982.81;;;9.07;66.21
75627;BME280;67372;49.404;11.034;2023-04-09T08:15:21;98983.97;;;9.19;66.76
75627;BME280;67372;49.404;11.034;2023-04-09T08:17:47;98983.75;;;9.36;64.64
75627;BME280;67372;49.404;11.034;2023-04-09T08:20:14;98985.97;;;9.53;64.82
75627;BME280;67372;49.404;11.034;2023-04-09T08:22:40;98978.28;;;9.65;65.41
75627;BME280;67372;49.404;11.034;2023-04-09T08:25:06;98981.72;;;9.80;63.18
75627;BME280;67372;49.404;11.034;2023-04-09T08:27:33;98978.06;;;9.88;61.20
75627;BME280;67372;49.404;11.034;2023-04-09T08:29:59;98978.19;;;10.01;61.74
75627;BME280;67372;49.404;11.034;2023-04-09T08:32:25;98977.84;;;10.11;62.79
75627;BME280;67372;49.404;11.034;2023-04-09T08:34:52;98984.25;;;10.16;60.56
75627;BME280;67372;49.404;11.034;2023-04-09T08:37:18;98982.69;;;10.22;61.33
75627;BME280;67372;49.404;11.034;2023-04-09T08:39:44;98985.44;;;10.35;61.06
75627;BME280;67372;49.404;11.034;2023-04-09T08:42:12;98971.13;;;10.43;59.80
75627;BME280;67372;49.404;11.034;2023-04-09T08:44:39;98977.72;;;10.47;58.96
75627;BME280;67372;49.404;11.034;2023-04-09T08:47:07;98967.66;;;10.42;60.01
75627;BME280;67372;49.404;11.034;2023-04-09T08:49:34;98967.91;;;10.54;60.92
75627;BME280;67372;49.404;11.034;2023-04-09T08:52:00;98971.69;;;10.66;60.76
75627;BME280;67372;49.404;11.034;2023-04-09T08:54:27;98968.22;;;10.79;60.26
75627;BME280;67372;49.404;11.034;2023-04-09T08:56:53;98961.06;;;10.86;60.43
75627;BME280;67372;49.404;11.034;2023-04-09T08:59:19;98964.41;;;10.95;58.52
75627;BME280;67372;49.404;11.034;2023-04-09T09:01:46;98956.63;;;11.00;57.31
75627;BME280;67372;49.404;11.034;2023-04-09T09:04:12;98965.44;;;11.00;57.45
75627;BME280;67372;49.404;11.034;2023-04-09T09:06:40;98962.16;;;10.98;57.17
75627;BME280;67372;49.404;11.034;2023-04-09T09:09:11;98960.31;;;11.05;57.52
75627;BME280;67372;49.404;11.034;2023-04-09T09:11:45;98963.66;;;11.21;57.67
75627;BME280;67372;49.404;11.034;2023-04-09T09:14:14;98959.75;;;11.17;53.62
75627;BME280;67372;49.404;11.034;2023-04-09T09:17:04;98967.53;;;11.12;53.83
75627;BME280;67372;49.404;11.034;2023-04-09T09:19:32;98965.91;;;11.17;55.62
75627;BME280;67372;49.404;11.034;2023-04-09T09:22:05;98968.00;;;11.28;54.87
75627;BME280;67372;49.404;11.034;2023-04-09T09:24:31;98972.50;;;11.28;52.94
75627;BME280;67372;49.404;11.034;2023-04-09T09:26:58;98972.28;;;11.23;53.74
75627;BME280;67372;49.404;11.034;2023-04-09T09:29:25;98962.00;;;11.13;52.50
75627;BME280;67372;49.404;11.034;2023-04-09T09:31:54;98965.72;;;11.19;55.00
75627;BME280;67372;49.404;11.034;2023-04-09T09:34:22;98969.22;;;11.19;54.21
75627;BME280;67372;49.404;11.034;2023-04-09T09:36:48;98967.59;;;11.31;54.69
75627;BME280;67372;49.404;11.034;2023-04-09T09:39:16;98961.03;;;11.47;54.73
75627;BME280;67372;49.404;11.034;2023-04-09T09:41:45;98967.81;;;11.36;52.32
75627;BME280;67372;49.404;11.034;2023-04-09T09:44:29;98967.38;;;11.33;51.85
75627;BME280;67372;49.404;11.034;2023-04-09T09:46:57;98972.97;;;11.38;53.36
75627;BME280;67372;49.404;11.034;2023-04-09T09:49:24;98972.97;;;11.38;53.27
75627;BME280;67372;49.404;11.034;2023-04-09T09:51:52;98962.06;;;11.46;53.93
75627;BME280;67372;49.404;11.034;2023-04-09T09:54:24;98963.09;;;11.52;54.31
75627;BME280;67372;49.404;11.034;2023-04-09T09:56:51;98968.66;;;11.44;52.06
75627;BME280;67372;49.404;11.034;2023-04-09T09:59:21;98963.47;;;11.22;50.08
75627;BME280;67372;49.404;11.034;2023-04-09T10:01:59;98963.66;;;11.21;49.49
75627;BME280;67372;49.404;11.034;2023-04-09T10:04:32;98964.09;;;11.31;51.19
75627;BME280;67372;49.404;11.034;2023-04-09T10:07:00;98959.81;;;11.36;51.29
75627;BME280;67372;49.404;11.034;2023-04-09T10:09:29;98952.41;;;11.45;51.14
75627;BME280;67372;49.404;11.034;2023-04-09T10:11:55;98953.25;;;11.65;51.23
75627;BME280;67372;49.404;11.034;2023-04-09T10:14:23;98952.06;;;11.81;50.25
75627;BME280;67372;49.404;11.034;2023-04-09T10:16:49;98950.41;;;11.93;49.59
75627;BME280;67372;49.404;11.034;2023-04-09T10:19:16;98944.66;;;11.96;48.11
75627;BME280;67372;49.404;11.034;2023-04-09T10:21:50;98939.31;;;12.10;50.89
75627;BME280;67372;49.404;11.034;2023-04-09T10:24:19;98934.13;;;12.21;49.76
75627;BME280;67372;49.404;11.034;2023-04-09T10:26:45;98933.75;;;12.11;47.88
75627;BME280;67372;49.404;11.034;2023-04-09T10:29:13;98938.47;;;12.03;48.91
75627;BME280;67372;49.404;11.034;2023-04-09T10:31:49;98938.72;;;11.88;47.81
75627;BME280;67372;49.404;11.034;2023-04-09T10:34:17;98937.84;;;11.67;48.01
75627;BME280;67372;49.404;11.034;2023-04-09T10:36:49;98932.50;;;11.67;48.66
75627;BME280;67372;49.404;11.034;2023-04-09T10:39:16;98938.47;;;11.69;49.26
75627;BME280;67372;49.404;11.034;2023-04-09T10:41:43;98937.47;;;11.84;49.98
75627;BME280;67372;49.404;11.034;2023-04-09T10:46:46;98929.78;;;12.27;49.97
75627;BME280;67372;49.404;11.034;2023-04-09T10:49:20;98929.56;;;12.42;46.81
75627;BME280;67372;49.404;11.034;2023-04-09T10:52:10;98929.72;;;12.60;47.33
75627;BME280;67372;49.404;11.034;2023-04-09T10:54:42;98927.28;;;13.03;47.48
75627;BME280;67372;49.404;11.034;2023-04-09T10:57:10;98927.53;;;13.33;44.12
75627;BME280;67372;49.404;11.034;2023-04-09T10:59:38;98928.00;;;13.55;46.05
75627;BME280;67372;49.404;11.034;2023-04-09T11:07:40;98924.66;;;14.09;42.30
75627;BME280;67372;49.404;11.034;2023-04-09T11:10:09;98922.09;;;14.21;41.33
75627;BME280;67372;49.404;11.034;2023-04-09T11:12:35;98923.06;;;14.27;41.45
75627;BME280;67372;49.404;11.034;2023-04-09T11:15:02;98916.88;;;14.26;40.38
75627;BME280;67372;49.404;11.034;2023-04-09T11:17:30;98915.09;;;14.20;40.64
75627;BME280;67372;49.404;11.034;2023-04-09T11:20:02;98914.31;;;14.13;41.95
75627;BME280;67372;49.404;11.034;2023-04-09T11:22:28;98913.34;;;14.07;40.00
75627;BME280;67372;49.404;11.034;2023-04-09T11:24:55;98915.16;;;13.89;39.24
75627;BME280;67372;49.404;11.034;2023-04-09T11:27:21;98909.72;;;13.95;42.33
75627;BME280;67372;49.404;11.034;2023-04-09T11:29:47;98911.16;;;13.98;40.71
75627;BME280;67372;49.404;11.034;2023-04-09T11:32:14;98905.66;;;14.11;41.31
75627;BME280;67372;49.404;11.034;2023-04-09T11:34:40;98911.03;;;14.11;39.90
75627;BME280;67372;49.404;11.034;2023-04-09T11:37:13;98907.44;;;14.17;40.25
75627;BME280;67372;49.404;11.034;2023-04-09T11:39:43;98904.53;;;14.19;38.42
75627;BME280;67372;49.404;11.034;2023-04-09T11:42:13;98896.97;;;14.34;37.94
75627;BME280;67372;49.404;11.034;2023-04-09T11:44:40;98910.16;;;14.35;38.22
75627;BME280;67372;49.404;11.034;2023-04-09T11:47:09;98899.78;;;14.39;37.77
75627;BME280;67372;49.404;11.034;2023-04-09T11:49:36;98904.56;;;14.37;37.54
75627;BME280;67372;49.404;11.034;2023-04-09T11:52:03;98897.56;;;14.36;37.99
75627;BME280;67372;49.404;11.034;2023-04-09T11:54:33;98897.63;;;14.29;35.59
75627;BME280;67372;49.404;11.034;2023-04-09T11:57:02;98893.81;;;14.37;38.73
75627;BME280;67372;49.404;11.034;2023-04-09T11:59:29;98886.13;;;14.47;38.39
75627;BME280;67372;49.404;11.034;2023-04-09T12:01:57;98902.28;;;14.59;38.58
75627;BME280;67372;49.404;11.034;2023-04-09T12:04:23;98899.19;;;14.19;38.71
75627;BME280;67372;49.404;11.034;2023-04-09T12:06:50;98898.97;;;14.20;38.32
75627;BME280;67372;49.404;11.034;2023-04-09T12:09:16;98900.97;;;14.06;38.24
75627;BME280;67372;49.404;11.034;2023-04-09T12:11:43;98897.00;;;14.09;39.50
75627;BME280;67372;49.404;11.034;2023-04-09T12:14:17;98897.91;;;14.03;37.01
75627;BME280;67372;49.404;11.034;2023-04-09T12:16:43;98896.19;;;14.08;39.45
75627;BME280;67372;49.404;11.034;2023-04-09T12:19:11;98897.00;;;14.09;38.08
75627;BME280;67372;49.404;11.034;2023-04-09T12:21:54;98896.13;;;13.97;38.28
75627;BME280;67372;49.404;11.034;2023-04-09T12:24:25;98898.41;;;13.93;37.08
75627;BME280;67372;49.404;11.034;2023-04-09T12:26:51;98892.28;;;13.86;37.61
75627;BME280;67372;49.404;11.034;2023-04-09T12:29:19;98900.16;;;14.06;39.14
75627;BME280;67372;49.404;11.034;2023-04-09T12:31:46;98892.63;;;13.96;37.70
75627;BME280;67372;49.404;11.034;2023-04-09T12:34:12;98891.00;;;13.89;37.84
75627;BME280;67372;49.404;11.034;2023-04-09T12:36:42;98890.22;;;14.06;37.29
75627;BME280;67372;49.404;11.034;2023-04-09T12:39:08;98892.56;;;14.21;38.09
75627;BME280;67372;49.404;11.034;2023-04-09T12:41:35;98893.38;;;14.40;38.44
75627;BME280;67372;49.404;11.034;2023-04-09T12:44:01;98888.81;;;14.47;38.13
75627;BME280;67372;49.404;11.034;2023-04-09T12:46:27;98881.34;;;14.49;38.28
75627;BME280;67372;49.404;11.034;2023-04-09T12:48:54;98889.75;;;14.53;37.69
75627;BME280;67372;49.404;11.034;2023-04-09T12:51:20;98883.56;;;14.70;38.69
75627;BME280;67372;49.404;11.034;2023-04-09T12:53:47;98879.88;;;14.83;36.71
75627;BME280;67372;49.404;11.034;2023-04-09T12:56:13;98880.59;;;14.90;37.52
75627;BME280;67372;49.404;11.034;2023-04-09T12:58:39;98869.56;;;15.10;35.76
75627;BME280;67372;49.404;11.034;2023-04-09T13:01:06;98858.88;;;15.33;37.07
75627;BME280;67372;49.404;11.034;2023-04-09T13:03:33;98867.16;;;15.62;37.73
75627;BME280;67372;49.404;11.034;2023-04-09T13:05:59;98865.28;;;15.74;37.35
75627;BME280;67372;49.404;11.034;2023-04-09T13:08:26;98862.72;;;15.79;36.58
75627;BME280;67372;49.404;11.034;2023-04-09T13:10:52;98859.78;;;15.81;36.50